createdAt,value
2023-02-02T00:02:01.433Z,-3.55
2023-02-02T00:04:33.319Z,-3.51
2023-02-02T00:07:05.163Z,-3.54
2023-02-02T00:09:36.167Z,-3.61
2023-02-02T00:12:05.670Z,-3.60
2023-02-02T00:14:35.018Z,-3.47
2023-02-02T00:17:05.121Z,-3.36
2023-02-02T00:19:34.861Z,-3.30
2023-02-02T00:22:04.247Z,-3.25
2023-02-02T00:24:35.018Z,-2.75
2023-02-02T00:27:04.306Z,-2.22
2023-02-02T00:29:34.510Z,-1.92
2023-02-02T00:32:03.848Z,-1.62
2023-02-02T00:34:33.155Z,-1.34
2023-02-02T00:37:02.591Z,-1.20
2023-02-02T00:39:32.021Z,-1.14
2023-02-02T00:42:03.241Z,-1.06
2023-02-02T00:44:49.789Z,-1.04
2023-02-02T00:50:34.323Z,-1.07
2023-02-02T00:53:03.688Z,-1.08
2023-02-02T00:55:33.078Z,-1.08
2023-02-02T00:58:02.537Z,-1.06
2023-02-02T01:00:31.895Z,-1.00
2023-02-02T01:03:04.693Z,-0.98
2023-02-02T01:05:36.065Z,-0.96
2023-02-02T01:08:07.133Z,-0.80
2023-02-02T01:10:36.690Z,-0.73
2023-02-02T01:13:06.025Z,-0.68
2023-02-02T01:15:35.277Z,-0.64
2023-02-02T01:18:04.555Z,-0.64
2023-02-02T01:20:35.390Z,-0.66
2023-02-02T01:23:04.740Z,-0.71
2023-02-02T01:25:38.383Z,-0.73
2023-02-02T01:28:08.197Z,-0.71
2023-02-02T01:30:37.582Z,-0.73
2023-02-02T01:33:06.974Z,-0.73
2023-02-02T01:35:37.625Z,-0.73
2023-02-02T01:38:06.854Z,-0.74
2023-02-02T01:40:36.260Z,-0.74
2023-02-02T01:43:05.773Z,-0.74
2023-02-02T01:45:35.130Z,-0.77
2023-02-02T01:48:05.157Z,-0.79
2023-02-02T01:50:38.196Z,-0.77
2023-02-02T01:53:09.850Z,-0.78
2023-02-02T01:55:43.079Z,-0.81
2023-02-02T01:58:17.284Z,-0.89
2023-02-02T02:00:47.369Z,-0.92
2023-02-02T02:03:21.227Z,-0.98
2023-02-02T02:05:55.488Z,-1.10
2023-02-02T02:08:28.755Z,-1.22
2023-02-02T02:10:58.847Z,-1.31
2023-02-02T02:13:44.700Z,-1.35
2023-02-02T02:16:26.585Z,-1.37
2023-02-02T02:19:11.209Z,-1.43
2023-02-02T02:22:26.148Z,-1.55
2023-02-02T02:25:54.147Z,-1.58
2023-02-02T02:29:06.040Z,-1.65
2023-02-02T02:32:15.768Z,-1.70
2023-02-02T02:34:55.133Z,-1.77
2023-02-02T02:37:38.958Z,-1.78
2023-02-02T02:40:17.869Z,-1.78
2023-02-02T02:42:51.567Z,-1.82
2023-02-02T02:45:22.183Z,-1.84
2023-02-02T02:47:54.055Z,-1.84
2023-02-02T02:50:23.755Z,-1.87
2023-02-02T02:53:03.612Z,-1.96
2023-02-02T02:55:46.559Z,-1.93
2023-02-02T02:58:23.994Z,-1.91
2023-02-02T03:01:11.828Z,-1.96
2023-02-02T03:04:08.727Z,-1.97
2023-02-02T03:06:48.094Z,-1.99
2023-02-02T03:09:23.779Z,-2.00
2023-02-02T03:11:53.135Z,-1.99
2023-02-02T03:14:22.531Z,-2.03
2023-02-02T03:16:54.049Z,-2.08
2023-02-02T03:19:24.978Z,-2.06
2023-02-02T03:21:54.377Z,-2.04
2023-02-02T03:24:23.607Z,-1.92
2023-02-02T03:26:52.993Z,-1.78
2023-02-02T03:29:22.648Z,-1.69
2023-02-02T03:31:52.551Z,-1.59
2023-02-02T03:34:23.406Z,-1.41
2023-02-02T03:36:52.708Z,-1.28
2023-02-02T03:39:21.971Z,-1.32
2023-02-02T03:41:51.715Z,-1.35
2023-02-02T03:44:21.186Z,-1.38
2023-02-02T03:46:50.484Z,-1.42
2023-02-02T03:51:33.790Z,-1.60
2023-02-02T03:54:03.067Z,-1.62
2023-02-02T03:56:32.378Z,-1.65
2023-02-02T03:59:01.692Z,-1.70
2023-02-02T04:01:32.158Z,-1.71
2023-02-02T04:04:01.736Z,-1.66
2023-02-02T04:06:32.555Z,-1.69
2023-02-02T04:09:01.737Z,-1.65
2023-02-02T04:11:31.016Z,-1.59
2023-02-02T04:14:00.465Z,-1.60
2023-02-02T04:16:31.214Z,-1.69
2023-02-02T04:19:00.684Z,-1.73
2023-02-02T04:21:30.031Z,-1.77
2023-02-02T04:24:00.957Z,-1.79
2023-02-02T04:26:30.320Z,-1.82
2023-02-02T04:28:59.589Z,-1.88
2023-02-02T04:31:30.193Z,-1.86
2023-02-02T04:33:59.980Z,-1.80
2023-02-02T04:36:29.416Z,-1.81
2023-02-02T04:39:00.309Z,-1.82
2023-02-02T04:41:29.830Z,-1.84
2023-02-02T04:43:59.075Z,-1.84
2023-02-02T04:46:28.785Z,-1.85
2023-02-02T04:48:58.153Z,-1.76
2023-02-02T04:51:27.589Z,-1.73
2023-02-02T04:53:56.955Z,-1.76
2023-02-02T04:56:29.290Z,-1.82
2023-02-02T04:58:58.730Z,-1.87
2023-02-02T05:01:28.061Z,-1.92
2023-02-02T05:03:57.473Z,-1.92
2023-02-02T05:06:27.106Z,-1.96
2023-02-02T05:08:56.487Z,-2.07
2023-02-02T05:11:28.191Z,-2.15
2023-02-02T05:13:57.958Z,-2.20
2023-02-02T05:16:29.157Z,-2.31
2023-02-02T05:18:59.734Z,-2.40
2023-02-02T05:21:29.499Z,-2.40
2023-02-02T05:23:59.927Z,-2.45
2023-02-02T05:26:30.985Z,-2.48
2023-02-02T05:29:00.256Z,-2.58
2023-02-02T05:31:30.136Z,-2.67
2023-02-02T05:33:59.516Z,-2.73
2023-02-02T05:36:28.969Z,-2.74
2023-02-02T05:38:58.247Z,-2.87
2023-02-02T05:41:27.524Z,-2.91
2023-02-02T05:44:00.235Z,-2.92
2023-02-02T05:46:29.650Z,-2.91
2023-02-02T05:49:00.049Z,-2.89
2023-02-02T05:51:33.212Z,-2.97
2023-02-02T05:54:03.751Z,-3.02
2023-02-02T05:56:33.127Z,-3.04
2023-02-02T05:59:06.573Z,-3.04
2023-02-02T06:01:36.456Z,-3.06
2023-02-02T06:04:05.824Z,-3.17
2023-02-02T06:06:35.910Z,-3.17
2023-02-02T06:09:05.623Z,-3.31
2023-02-02T06:11:35.499Z,-3.28
2023-02-02T06:14:06.578Z,-3.23
2023-02-02T06:16:35.918Z,-3.14
2023-02-02T06:19:05.553Z,-3.04
2023-02-02T06:21:34.875Z,-2.94
2023-02-02T06:24:04.135Z,-2.85
2023-02-02T06:26:33.489Z,-2.72
2023-02-02T06:29:03.152Z,-2.58
2023-02-02T06:31:34.352Z,-2.52
2023-02-02T06:34:03.858Z,-2.40
2023-02-02T06:36:33.321Z,-2.24
2023-02-02T06:39:05.012Z,-2.07
2023-02-02T06:41:34.228Z,-1.93
2023-02-02T06:44:04.331Z,-1.82
2023-02-02T06:46:35.235Z,-1.67
2023-02-02T06:51:33.829Z,-1.27
2023-02-02T06:54:04.140Z,-1.02
2023-02-02T06:56:33.391Z,-0.81
2023-02-02T06:59:02.699Z,-0.68
2023-02-02T07:01:32.024Z,-0.51
2023-02-02T07:04:01.850Z,-0.39
2023-02-02T07:06:33.440Z,-0.24
2023-02-02T07:09:03.559Z,-0.06
2023-02-02T07:11:37.607Z,0.08
2023-02-02T07:14:09.731Z,0.19
2023-02-02T07:16:39.636Z,0.32
2023-02-02T07:19:09.470Z,0.46
2023-02-02T07:21:40.216Z,0.59
2023-02-02T07:24:10.482Z,0.71
2023-02-02T07:26:40.141Z,0.85
2023-02-02T07:29:10.515Z,0.97
2023-02-02T07:31:39.914Z,1.10
2023-02-02T07:34:09.462Z,1.19
2023-02-02T07:36:40.253Z,1.32
2023-02-02T07:39:09.674Z,1.47
2023-02-02T07:41:39.462Z,1.61
2023-02-02T07:44:12.474Z,1.77
2023-02-02T07:46:41.914Z,1.92
2023-02-02T07:49:15.555Z,2.03
2023-02-02T07:51:49.360Z,2.17
2023-02-02T07:54:18.778Z,2.33
2023-02-02T07:56:48.190Z,2.50
2023-02-02T07:59:18.452Z,2.65
2023-02-02T08:01:47.879Z,2.84
2023-02-02T08:04:17.500Z,3.04
2023-02-02T08:06:48.538Z,3.22
2023-02-02T08:09:17.913Z,3.39
2023-02-02T08:11:47.231Z,3.55
2023-02-02T08:14:16.567Z,3.70
2023-02-02T08:16:46.089Z,3.90
2023-02-02T08:19:15.473Z,4.07
2023-02-02T08:21:44.799Z,4.27
2023-02-02T08:24:15.508Z,4.50
2023-02-02T08:26:45.009Z,4.60
2023-02-02T08:29:17.426Z,4.76
2023-02-02T08:31:47.640Z,4.74
2023-02-02T08:34:16.950Z,4.87
2023-02-02T08:36:46.256Z,4.94
2023-02-02T08:39:16.977Z,4.96
2023-02-02T08:41:46.627Z,5.17
2023-02-02T08:44:17.970Z,5.26
2023-02-02T08:46:49.390Z,5.26
2023-02-02T08:49:18.948Z,5.27
2023-02-02T08:51:48.176Z,5.36
2023-02-02T08:54:19.029Z,5.46
2023-02-02T08:56:48.400Z,5.60
2023-02-02T08:59:17.683Z,5.67
2023-02-02T09:01:46.910Z,5.70
2023-02-02T09:04:17.814Z,5.78
2023-02-02T09:06:47.605Z,5.85
2023-02-02T09:09:19.347Z,5.84
2023-02-02T09:11:48.615Z,5.89
2023-02-02T09:14:18.035Z,5.92
2023-02-02T09:16:47.259Z,5.92
2023-02-02T09:19:17.328Z,5.79
2023-02-02T09:21:46.592Z,5.99
2023-02-02T09:24:16.548Z,6.04
2023-02-02T09:26:47.914Z,6.01
2023-02-02T09:29:19.218Z,6.06
2023-02-02T09:31:48.780Z,6.14
2023-02-02T09:34:18.494Z,6.23
2023-02-02T09:36:48.716Z,6.34
2023-02-02T09:39:19.701Z,6.48
2023-02-02T09:42:36.936Z,6.59
2023-02-02T09:45:12.373Z,6.38
2023-02-02T09:47:56.193Z,6.46
2023-02-02T09:51:39.708Z,6.63
2023-02-02T09:54:19.708Z,6.68
2023-02-02T09:56:55.015Z,6.46
2023-02-02T09:59:27.330Z,6.22
2023-02-02T10:02:00.191Z,6.21
2023-02-02T10:04:35.517Z,6.24
2023-02-02T10:07:14.276Z,6.46
2023-02-02T10:09:50.965Z,6.58
2023-02-02T10:12:35.277Z,6.59
2023-02-02T10:15:17.943Z,6.60
2023-02-02T10:17:53.013Z,6.46
2023-02-02T10:20:35.479Z,6.42
2023-02-02T10:23:19.694Z,6.53
2023-02-02T10:25:58.581Z,6.46
2023-02-02T10:28:51.417Z,6.57
2023-02-02T10:31:43.433Z,6.58
2023-02-02T10:34:21.909Z,6.63
2023-02-02T10:37:18.755Z,6.65
2023-02-02T10:40:06.862Z,6.65
2023-02-02T10:43:09.522Z,6.57
2023-02-02T10:45:42.426Z,6.42
2023-02-02T10:48:18.460Z,6.22
2023-02-02T10:50:52.431Z,6.12
2023-02-02T10:53:22.766Z,6.12
2023-02-02T10:56:00.091Z,6.15
2023-02-02T10:58:34.146Z,6.05
2023-02-02T11:01:08.120Z,5.99
2023-02-02T11:03:37.344Z,5.90
2023-02-02T11:06:26.850Z,5.93
2023-02-02T11:08:59.715Z,5.93
2023-02-02T11:11:34.712Z,5.97
2023-02-02T11:14:12.664Z,5.94
2023-02-02T11:16:44.666Z,5.94
2023-02-02T11:19:31.678Z,5.85
2023-02-02T11:22:04.405Z,5.86
2023-02-02T11:24:36.967Z,5.87
2023-02-02T11:27:15.530Z,5.81
2023-02-02T11:29:50.771Z,5.79
2023-02-02T11:32:30.289Z,5.85
2023-02-02T11:35:23.519Z,5.83
2023-02-02T11:38:02.709Z,5.83
2023-02-02T11:40:37.379Z,5.69
2023-02-02T11:43:19.841Z,5.60
2023-02-02T11:45:57.261Z,5.51
2023-02-02T11:48:32.659Z,5.39
2023-02-02T11:51:03.889Z,5.32
2023-02-02T11:53:35.871Z,5.26
2023-02-02T11:56:10.304Z,5.31
2023-02-02T11:58:48.802Z,5.37
2023-02-02T12:01:30.211Z,5.45
2023-02-02T12:04:02.350Z,5.53
2023-02-02T12:06:38.776Z,5.65
2023-02-02T12:09:16.733Z,5.73
2023-02-02T12:12:00.594Z,5.71
2023-02-02T12:14:44.395Z,5.63
2023-02-02T12:17:29.550Z,5.61
2023-02-02T12:20:31.400Z,5.58
2023-02-02T12:23:31.640Z,5.48
2023-02-02T12:26:23.245Z,5.47
2023-02-02T12:29:26.092Z,5.49
2023-02-02T12:32:30.172Z,5.45
2023-02-02T12:35:24.336Z,5.41
2023-02-02T12:38:08.097Z,5.34
2023-02-02T12:41:12.175Z,5.25
2023-02-02T12:43:44.818Z,5.22
2023-02-02T12:46:36.706Z,5.18
2023-02-02T12:51:55.151Z,5.13
2023-02-02T12:54:52.148Z,5.10
2023-02-02T12:57:33.499Z,5.07
2023-02-02T13:00:54.492Z,5.07
2023-02-02T13:04:07.861Z,4.99
2023-02-02T13:07:12.758Z,4.90
2023-02-02T13:09:50.094Z,4.82
2023-02-02T13:12:24.119Z,4.68
2023-02-02T13:15:00.322Z,4.60
2023-02-02T13:17:34.384Z,4.56
2023-02-02T13:20:08.524Z,4.47
2023-02-02T13:22:45.624Z,4.39
2023-02-02T13:25:23.723Z,4.33
2023-02-02T13:27:54.563Z,4.30
2023-02-02T13:30:32.451Z,4.26
2023-02-02T13:33:05.614Z,4.23
2023-02-02T13:35:42.615Z,4.23
2023-02-02T13:38:23.866Z,4.23
2023-02-02T13:40:56.378Z,4.20
2023-02-02T13:43:35.919Z,4.15
2023-02-02T13:46:18.285Z,4.11
2023-02-02T13:49:02.129Z,4.06
2023-02-02T13:52:07.293Z,3.99
2023-02-02T13:55:32.244Z,3.89
2023-02-02T13:58:52.042Z,3.86
2023-02-02T14:01:23.151Z,3.86
2023-02-02T14:03:57.138Z,3.90
2023-02-02T14:06:28.707Z,3.89
2023-02-02T14:09:01.824Z,3.88
2023-02-02T14:11:36.425Z,3.87
2023-02-02T14:14:35.439Z,3.79
2023-02-02T14:17:08.317Z,3.77
2023-02-02T14:19:57.006Z,3.82
2023-02-02T14:22:48.187Z,3.81
2023-02-02T14:25:55.824Z,3.75
2023-02-02T14:28:56.488Z,3.68
2023-02-02T14:31:54.315Z,3.65
2023-02-02T14:34:33.974Z,3.59
2023-02-02T14:37:40.091Z,3.49
2023-02-02T14:40:47.654Z,3.44
2023-02-02T14:46:49.397Z,3.33
2023-02-02T14:49:25.841Z,3.27
2023-02-02T14:52:03.161Z,3.19
2023-02-02T14:54:42.721Z,3.10
2023-02-02T14:57:30.353Z,3.01
2023-02-02T15:00:01.583Z,2.96
2023-02-02T15:02:37.610Z,2.83
2023-02-02T15:05:46.520Z,2.78
2023-02-02T15:08:25.873Z,2.77
2023-02-02T15:11:32.372Z,2.75
2023-02-02T15:14:15.259Z,2.68
2023-02-02T15:16:46.316Z,2.65
2023-02-02T15:19:29.402Z,2.62
2023-02-02T15:22:01.114Z,2.57
2023-02-02T15:24:33.003Z,2.56
2023-02-02T15:27:03.316Z,2.58
2023-02-02T15:29:43.563Z,2.56
2023-02-02T15:32:20.628Z,2.50
2023-02-02T15:34:54.594Z,2.47
2023-02-02T15:37:29.374Z,2.49
2023-02-02T15:40:02.291Z,2.52
2023-02-02T15:42:55.859Z,2.53
2023-02-02T15:45:43.654Z,2.54
2023-02-02T15:51:33.978Z,2.32
2023-02-02T15:54:03.275Z,2.21
2023-02-02T15:56:33.257Z,2.15
2023-02-02T15:59:03.169Z,2.12
2023-02-02T16:01:45.930Z,2.11
2023-02-02T16:04:21.671Z,2.09
2023-02-02T16:06:53.063Z,2.06
2023-02-02T16:09:29.829Z,2.01
2023-02-02T16:11:59.241Z,1.98
2023-02-02T16:14:28.619Z,1.98
2023-02-02T16:16:58.215Z,1.97
2023-02-02T16:19:30.528Z,1.94
2023-02-02T16:22:05.964Z,1.89
2023-02-02T16:24:38.790Z,1.79
2023-02-02T16:27:10.693Z,1.72
2023-02-02T16:29:42.671Z,1.63
2023-02-02T16:32:29.818Z,1.56
2023-02-02T16:34:59.585Z,1.50
2023-02-02T16:37:32.694Z,1.44
2023-02-02T16:40:26.415Z,1.40
2023-02-02T16:43:07.612Z,1.40
2023-02-02T16:45:47.010Z,1.40
2023-02-02T16:48:34.655Z,1.37
2023-02-02T16:51:26.406Z,1.35
2023-02-02T16:54:15.366Z,1.31
2023-02-02T16:56:47.677Z,1.28
2023-02-02T16:59:24.291Z,1.22
2023-02-02T17:01:56.484Z,1.18
2023-02-02T17:04:29.822Z,1.12
2023-02-02T17:07:07.956Z,1.08
2023-02-02T17:09:41.280Z,1.09
2023-02-02T17:12:35.151Z,1.09
2023-02-02T17:15:29.042Z,1.05
2023-02-02T17:17:59.332Z,1.04
2023-02-02T17:20:30.030Z,1.03
2023-02-02T17:23:03.349Z,1.00
2023-02-02T17:25:39.378Z,1.03
2023-02-02T17:28:13.749Z,1.02
2023-02-02T17:30:44.222Z,1.00
2023-02-02T17:33:15.936Z,0.99
2023-02-02T17:35:55.717Z,0.99
2023-02-02T17:38:27.931Z,0.97
2023-02-02T17:41:03.117Z,0.93
2023-02-02T17:43:34.190Z,0.90
2023-02-02T17:46:05.705Z,0.88
2023-02-02T17:48:35.603Z,0.85
2023-02-02T17:51:07.449Z,0.85
2023-02-02T17:53:36.944Z,0.83
2023-02-02T17:56:09.136Z,0.80
2023-02-02T17:58:38.516Z,0.81
2023-02-02T18:01:08.805Z,0.80
2023-02-02T18:03:41.533Z,0.75
2023-02-02T18:06:13.032Z,0.71
2023-02-02T18:08:42.944Z,0.67
2023-02-02T18:11:16.869Z,0.64
2023-02-02T18:13:46.678Z,0.62
2023-02-02T18:16:16.301Z,0.56
2023-02-02T18:18:46.021Z,0.54
2023-02-02T18:21:15.557Z,0.54
2023-02-02T18:23:45.095Z,0.52
2023-02-02T18:26:18.908Z,0.51
2023-02-02T18:28:50.011Z,0.51
2023-02-02T18:31:24.137Z,0.54
2023-02-02T18:33:54.608Z,0.54
2023-02-02T18:36:24.836Z,0.54
2023-02-02T18:38:55.062Z,0.51
2023-02-02T18:41:26.239Z,0.49
2023-02-02T18:43:56.794Z,0.52
2023-02-02T18:46:27.017Z,0.50
2023-02-02T18:51:33.789Z,0.45
2023-02-02T18:54:03.128Z,0.43
2023-02-02T18:56:32.893Z,0.43
2023-02-02T18:59:02.278Z,0.41
2023-02-02T19:01:31.978Z,0.35
2023-02-02T19:04:02.233Z,0.30
2023-02-02T19:06:50.146Z,0.30
2023-02-02T19:09:21.028Z,0.31
2023-02-02T19:11:55.007Z,0.31
2023-02-02T19:14:28.899Z,0.30
2023-02-02T19:17:03.297Z,0.31
2023-02-02T19:19:35.787Z,0.27
2023-02-02T19:22:21.247Z,0.25
2023-02-02T19:24:52.048Z,0.22
2023-02-02T19:27:23.551Z,0.22
2023-02-02T19:29:56.054Z,0.20
2023-02-02T19:32:28.256Z,0.15
2023-02-02T19:35:01.620Z,0.13
2023-02-02T19:37:34.235Z,0.11
2023-02-02T19:40:22.417Z,0.07
2023-02-02T19:42:57.535Z,0.05
2023-02-02T19:45:31.281Z,0.03
2023-02-02T19:48:03.152Z,-0.01
2023-02-02T19:50:41.693Z,-0.05
2023-02-02T19:53:20.655Z,-0.06
2023-02-02T19:55:50.211Z,-0.11
2023-02-02T19:58:23.293Z,-0.11
2023-02-02T20:00:55.951Z,-0.15
2023-02-02T20:03:29.139Z,-0.13
2023-02-02T20:06:00.901Z,-0.13
2023-02-02T20:08:39.851Z,-0.13
2023-02-02T20:11:32.519Z,-0.14
2023-02-02T20:14:02.890Z,-0.13
2023-02-02T20:16:42.074Z,-0.15
2023-02-02T20:19:21.017Z,-0.15
2023-02-02T20:21:52.379Z,-0.19
2023-02-02T20:24:26.401Z,-0.20
2023-02-02T20:27:00.039Z,-0.17
2023-02-02T20:29:41.013Z,-0.15
2023-02-02T20:32:22.376Z,-0.14
2023-02-02T20:34:52.852Z,-0.13
2023-02-02T20:37:29.389Z,-0.11
2023-02-02T20:40:02.483Z,-0.14
2023-02-02T20:42:32.592Z,-0.15
2023-02-02T20:45:02.079Z,-0.22
2023-02-02T20:47:31.347Z,-0.25
2023-02-02T20:50:01.372Z,-0.27
2023-02-02T20:52:31.208Z,-0.30
2023-02-02T20:55:01.944Z,-0.30
2023-02-02T20:57:32.796Z,-0.31
2023-02-02T21:00:02.157Z,-0.34
2023-02-02T21:02:31.526Z,-0.33
2023-02-02T21:05:01.596Z,-0.35
2023-02-02T21:07:31.052Z,-0.37
2023-02-02T21:10:01.820Z,-0.40
2023-02-02T21:12:31.078Z,-0.40
2023-02-02T21:15:01.032Z,-0.42
2023-02-02T21:17:30.543Z,-0.44
2023-02-02T21:19:59.856Z,-0.42
2023-02-02T21:22:29.150Z,-0.46
2023-02-02T21:24:58.450Z,-0.46
2023-02-02T21:27:29.137Z,-0.49
2023-02-02T21:29:58.479Z,-0.48
2023-02-02T21:32:27.788Z,-0.48
2023-02-02T21:34:59.139Z,-0.52
2023-02-02T21:37:28.716Z,-0.54
2023-02-02T21:40:01.753Z,-0.56
2023-02-02T21:42:35.947Z,-0.56
2023-02-02T21:45:34.833Z,-0.58
2023-02-02T21:51:36.574Z,-0.61
2023-02-02T21:54:24.178Z,-0.61
2023-02-02T21:56:55.213Z,-0.60
2023-02-02T21:59:26.438Z,-0.59
2023-02-02T22:01:55.791Z,-0.59
2023-02-02T22:04:28.661Z,-0.58
2023-02-02T22:07:01.902Z,-0.55
2023-02-02T22:09:41.116Z,-0.56
2023-02-02T22:12:20.581Z,-0.57
2023-02-02T22:14:52.731Z,-0.54
2023-02-02T22:17:25.405Z,-0.55
2023-02-02T22:20:00.510Z,-0.58
2023-02-02T22:22:37.254Z,-0.56
2023-02-02T22:25:29.522Z,-0.53
2023-02-02T22:28:03.259Z,-0.51
2023-02-02T22:30:39.664Z,-0.56
2023-02-02T22:33:10.951Z,-0.64
2023-02-02T22:35:40.821Z,-0.65
2023-02-02T22:38:12.540Z,-0.66
2023-02-02T22:40:41.987Z,-0.70
2023-02-02T22:43:13.514Z,-0.75
2023-02-02T22:45:43.096Z,-0.82
2023-02-02T22:48:13.163Z,-0.85
2023-02-02T22:50:43.180Z,-0.87
2023-02-02T22:53:14.393Z,-0.94
2023-02-02T22:55:44.381Z,-0.98
2023-02-02T22:58:13.711Z,-0.99
2023-02-02T23:00:43.031Z,-0.96
2023-02-02T23:03:12.530Z,-0.95
2023-02-02T23:05:41.923Z,-0.93
2023-02-02T23:08:12.674Z,-0.95
2023-02-02T23:10:41.957Z,-0.99
2023-02-02T23:13:11.572Z,-1.04
2023-02-02T23:15:40.998Z,-1.16
2023-02-02T23:18:10.372Z,-1.23
2023-02-02T23:20:39.737Z,-1.24
2023-02-02T23:23:09.085Z,-1.16
2023-02-02T23:25:39.711Z,-1.03
2023-02-02T23:28:10.739Z,-0.95
2023-02-02T23:30:40.152Z,-0.87
2023-02-02T23:33:10.183Z,-0.81
2023-02-02T23:35:39.461Z,-0.77
2023-02-02T23:38:09.892Z,-0.69
2023-02-02T23:40:40.553Z,-0.62
2023-02-02T23:43:10.007Z,-0.57
2023-02-02T23:45:40.059Z,-0.52
2023-02-02T23:48:10.924Z,-0.51
2023-02-02T23:50:40.400Z,-0.52
2023-02-02T23:53:12.495Z,-0.50
2023-02-02T23:55:45.915Z,-0.48
2023-02-02T23:58:15.759Z,-0.45
